Time;durP1;ratioP1;P1;durP2;ratioP2;P2;SDS_P1;SDS_P2;PMS_P1;PMS_P2;Temp;Humidity;BMP_temperature;BMP_pressure;BME280_temperature;BME280_humidity;BME280_pressure;Samples;Min_cycle;Max_cycle;Signal;HPM_P1;HPM_P2
2022/12/08 00:00:49;;;;;;;3.50;2.33;;;2.40;98.00;;;;;;5012884;28;20460;-66
2022/12/08 00:03:16;;;;;;;5.30;2.47;;;2.30;98.00;;;;;;5012757;28;20459;-66
2022/12/08 00:11:25;;;;;;;6.20;3.30;;;2.40;98.00;;;;;;5013065;28;20493;-66
2022/12/08 00:13:52;;;;;;;4.50;2.57;;;2.50;98.00;;;;;;5012747;28;20468;-66
2022/12/08 00:16:19;;;;;;;4.87;2.83;;;2.50;98.00;;;;;;5012575;28;20461;-66
2022/12/08 00:18:46;;;;;;;4.93;2.30;;;2.50;98.00;;;;;;5012734;28;20471;-66
2022/12/08 00:21:13;;;;;;;3.60;2.63;;;2.60;98.00;;;;;;5012673;28;20463;-66
2022/12/08 00:23:40;;;;;;;6.23;2.40;;;2.50;98.00;;;;;;5012541;28;20456;-66
2022/12/08 00:26:07;;;;;;;3.20;2.23;;;2.50;98.00;;;;;;5012564;28;20567;-66
2022/12/08 00:28:36;;;;;;;3.00;2.10;;;2.50;98.00;;;;;;5012586;28;20462;-66
2022/12/08 00:31:08;;;;;;;3.20;2.50;;;2.50;98.00;;;;;;5012643;28;20463;-66
2022/12/08 00:33:38;;;;;;;3.80;2.27;;;2.50;98.00;;;;;;5012394;28;20472;-66
2022/12/08 00:36:07;;;;;;;3.07;2.33;;;2.40;98.00;;;;;;5012503;28;20463;-66
2022/12/08 00:38:34;;;;;;;1.83;1.80;;;2.40;98.00;;;;;;5012266;28;21032;-66
2022/12/08 00:41:01;;;;;;;4.67;2.37;;;2.30;98.00;;;;;;5012455;28;20468;-66
2022/12/08 00:43:28;;;;;;;4.77;3.27;;;2.20;98.00;;;;;;5011994;28;20460;-66
2022/12/08 00:45:57;;;;;;;3.53;2.00;;;2.20;98.00;;;;;;5012281;28;20877;-66
2022/12/08 00:48:24;;;;;;;2.20;2.00;;;2.20;98.00;;;;;;5012131;28;20836;-66
2022/12/08 00:50:51;;;;;;;3.00;2.33;;;2.20;98.00;;;;;;5010807;28;20464;-66
2022/12/08 00:53:18;;;;;;;4.07;2.60;;;2.30;98.00;;;;;;5011102;28;20492;-66
2022/12/08 00:55:45;;;;;;;3.43;2.47;;;2.40;98.00;;;;;;5012204;28;20464;-67
2022/12/08 00:58:12;;;;;;;3.07;2.23;;;2.40;98.00;;;;;;5011966;28;20494;-66
2022/12/08 01:00:41;;;;;;;2.57;1.80;;;2.40;98.00;;;;;;5011831;28;20467;-66
2022/12/08 01:03:11;;;;;;;2.70;2.20;;;2.40;98.00;;;;;;5011941;28;20470;-66
2022/12/08 01:05:38;;;;;;;4.77;2.40;;;2.30;98.00;;;;;;5012720;28;20470;-66
2022/12/08 01:08:06;;;;;;;3.10;2.17;;;2.10;98.00;;;;;;5011980;28;20558;-67
2022/12/08 01:10:35;;;;;;;4.13;2.47;;;2.00;98.00;;;;;;5012777;28;20495;-66
2022/12/08 01:13:03;;;;;;;3.00;2.00;;;2.00;98.00;;;;;;5012005;28;20451;-66
2022/12/08 01:15:31;;;;;;;2.80;2.03;;;1.80;98.00;;;;;;5011506;28;20452;-66
2022/12/08 01:17:58;;;;;;;3.83;2.60;;;1.80;98.00;;;;;;5010564;28;20470;-66
2022/12/08 01:20:27;;;;;;;3.40;2.33;;;1.80;98.00;;;;;;5011658;28;20459;-66
2022/12/08 01:22:54;;;;;;;2.23;1.83;;;1.80;98.00;;;;;;5011689;28;20853;-66
2022/12/08 01:25:21;;;;;;;3.90;2.10;;;1.80;98.00;;;;;;5011737;28;20455;-66
2022/12/08 01:27:48;;;;;;;5.40;2.47;;;1.70;98.00;;;;;;5011745;28;20479;-66
2022/12/08 01:30:17;;;;;;;4.80;2.53;;;1.50;98.00;;;;;;5011384;28;20949;-66
2022/12/08 01:32:44;;;;;;;3.20;2.00;;;1.40;98.00;;;;;;5011370;28;20961;-66
2022/12/08 01:35:12;;;;;;;2.10;1.50;;;1.50;98.00;;;;;;5011428;28;20461;-66
2022/12/08 01:37:40;;;;;;;4.20;3.00;;;1.50;98.00;;;;;;5011505;28;20957;-66
2022/12/08 01:40:09;;;;;;;3.40;2.10;;;1.40;98.00;;;;;;5011404;28;20962;-66
2022/12/08 01:42:37;;;;;;;1.70;1.60;;;1.30;98.00;;;;;;5011347;28;20976;-66
2022/12/08 01:45:07;;;;;;;3.87;2.43;;;1.20;98.00;;;;;;5011231;28;20451;-66
2022/12/08 01:47:39;;;;;;;2.80;2.13;;;1.30;98.00;;;;;;5011631;28;20494;-66
2022/12/08 01:50:10;;;;;;;2.30;1.50;;;1.30;98.00;;;;;;4994266;28;20467;-66
2022/12/08 01:52:47;;;;;;;4.10;2.37;;;1.30;98.00;;;;;;5011394;28;20455;-66
2022/12/08 01:55:19;;;;;;;3.23;2.50;;;1.30;98.00;;;;;;5011412;28;20463;-66
2022/12/08 01:57:48;;;;;;;2.70;1.80;;;1.20;98.00;;;;;;5011277;28;20506;-66
2022/12/08 02:00:18;;;;;;;3.83;2.60;;;1.10;98.00;;;;;;5011227;28;20455;-66
2022/12/08 02:02:53;;;;;;;2.00;1.60;;;1.20;98.00;;;;;;5011608;28;20466;-66
2022/12/08 02:05:22;;;;;;;3.60;1.97;;;1.00;98.00;;;;;;5012650;28;20493;-66
2022/12/08 02:07:51;;;;;;;6.10;2.20;;;1.00;98.00;;;;;;5014966;28;20482;-66
2022/12/08 02:10:21;;;;;;;2.53;1.73;;;1.10;98.00;;;;;;5014555;28;20527;-66
2022/12/08 02:12:51;;;;;;;3.23;1.50;;;1.10;98.00;;;;;;5015108;28;20506;-66
2022/12/08 02:15:19;;;;;;;3.00;1.97;;;1.00;98.00;;;;;;5014903;28;20462;-66
2022/12/08 02:17:57;;;;;;;2.83;1.70;;;1.00;98.00;;;;;;5015025;28;20855;-66
2022/12/08 02:20:37;;;;;;;2.70;2.50;;;1.20;98.00;;;;;;5015020;28;20455;-66
2022/12/08 02:23:16;;;;;;;2.33;1.90;;;1.30;98.00;;;;;;5014994;28;20470;-66
2022/12/08 02:25:57;;;;;;;5.10;2.37;;;1.30;98.00;;;;;;5014827;28;20466;-66
2022/12/08 02:28:50;;;;;;;2.60;1.67;;;1.30;98.00;;;;;;5014589;28;20483;-66
2022/12/08 02:31:27;;;;;;;3.27;1.97;;;1.10;98.00;;;;;;5014572;28;20466;-66
2022/12/08 02:34:15;;;;;;;2.47;2.27;;;1.00;98.00;;;;;;5014497;28;20459;-66
2022/12/08 02:36:52;;;;;;;3.23;1.70;;;1.00;98.00;;;;;;5014605;28;20459;-66
2022/12/08 02:39:29;;;;;;;2.60;1.93;;;1.00;98.00;;;;;;5014366;28;20459;-66
2022/12/08 02:42:04;;;;;;;1.97;1.87;;;1.00;98.00;;;;;;5014450;28;20603;-66
2022/12/08 02:44:36;;;;;;;1.43;1.37;;;0.90;98.00;;;;;;5014309;28;20470;-66
2022/12/08 02:47:09;;;;;;;3.80;2.10;;;0.90;98.00;;;;;;5014521;28;20863;-66
2022/12/08 02:49:38;;;;;;;2.80;1.90;;;1.10;98.00;;;;;;5014146;28;20455;-66
2022/12/08 02:52:44;;;;;;;6.20;2.60;;;1.20;98.00;;;;;;5014173;28;20459;-66
2022/12/08 02:55:33;;;;;;;2.47;1.90;;;1.20;98.00;;;;;;5014160;28;20470;-66
2022/12/08 02:58:37;;;;;;;1.50;1.33;;;1.10;98.00;;;;;;5014129;28;20459;-66
2022/12/08 03:01:21;;;;;;;2.40;1.93;;;1.00;98.00;;;;;;5008905;28;20465;-66
2022/12/08 03:03:56;;;;;;;2.77;1.87;;;0.80;98.00;;;;;;5013948;28;20494;-66
2022/12/08 03:06:32;;;;;;;2.30;1.77;;;0.70;98.00;;;;;;5014000;28;20466;-66
2022/12/08 03:09:05;;;;;;;2.57;1.70;;;0.70;98.00;;;;;;5014084;28;20459;-66
2022/12/08 03:11:38;;;;;;;4.90;2.17;;;0.50;98.00;;;;;;5014164;28;20465;-66
2022/12/08 03:14:09;;;;;;;1.77;1.50;;;0.40;98.00;;;;;;5013940;28;20494;-66
2022/12/08 03:16:40;;;;;;;1.60;1.57;;;0.30;98.00;;;;;;5012821;28;20463;-66
2022/12/08 03:19:12;;;;;;;1.97;1.80;;;0.40;98.00;;;;;;5013830;28;20458;-66
2022/12/08 03:21:41;;;;;;;2.37;1.80;;;0.40;98.00;;;;;;5013869;28;20926;-66
2022/12/08 03:24:11;;;;;;;2.33;1.90;;;0.50;98.00;;;;;;5013541;28;20459;-66
2022/12/08 03:26:45;;;;;;;2.27;2.10;;;0.60;98.00;;;;;;5013548;28;20541;-66
2022/12/08 03:29:13;;;;;;;2.80;1.67;;;0.60;98.00;;;;;;5013319;28;20513;-67
2022/12/08 03:31:45;;;;;;;2.10;1.90;;;0.70;98.00;;;;;;5013497;28;20464;-66
2022/12/08 03:34:15;;;;;;;6.40;1.83;;;0.70;98.00;;;;;;5013407;28;20459;-66
2022/12/08 03:36:44;;;;;;;1.83;1.83;;;0.70;98.00;;;;;;5013348;28;20463;-66
2022/12/08 03:39:12;;;;;;;1.43;1.40;;;0.60;98.00;;;;;;5013220;28;20466;-66
2022/12/08 03:41:39;;;;;;;2.67;2.30;;;0.60;98.00;;;;;;5013355;28;20474;-66
2022/12/08 03:44:06;;;;;;;2.27;1.87;;;0.60;98.00;;;;;;5013349;28;20486;-66
2022/12/08 03:46:33;;;;;;;3.40;2.37;;;0.50;98.00;;;;;;4996007;28;20610;-66
2022/12/08 03:49:00;;;;;;;4.40;2.67;;;0.50;98.00;;;;;;5013095;28;20976;-66
2022/12/08 03:51:30;;;;;;;1.40;1.30;;;0.60;98.00;;;;;;5013175;28;20491;-66
2022/12/08 03:53:59;;;;;;;5.37;2.30;;;0.60;98.00;;;;;;5013061;28;20485;-66
2022/12/08 03:56:29;;;;;;;4.83;2.70;;;0.80;98.00;;;;;;5013029;28;20521;-66
2022/12/08 03:58:57;;;;;;;6.23;2.40;;;0.90;98.00;;;;;;5012916;28;20986;-66
2022/12/08 04:01:25;;;;;;;2.57;2.00;;;1.00;98.00;;;;;;5012984;28;20477;-66
2022/12/08 04:03:52;;;;;;;3.40;2.07;;;0.90;98.00;;;;;;5013086;28;20866;-66
2022/12/08 04:06:20;;;;;;;2.77;2.30;;;0.90;98.00;;;;;;5012979;28;20952;-66
2022/12/08 04:08:47;;;;;;;3.23;2.10;;;0.90;98.00;;;;;;5012673;28;20509;-66
2022/12/08 04:11:16;;;;;;;4.43;2.00;;;0.80;98.00;;;;;;5012968;28;20455;-66
2022/12/08 04:13:43;;;;;;;10.27;2.83;;;0.80;98.00;;;;;;5012734;28;20537;-66
2022/12/08 04:16:15;;;;;;;3.83;2.67;;;0.70;98.00;;;;;;5012665;28;20791;-66
2022/12/08 04:18:43;;;;;;;2.67;2.27;;;0.60;98.00;;;;;;5012637;28;20533;-66
2022/12/08 04:21:10;;;;;;;5.03;3.00;;;0.70;98.00;;;;;;5012697;28;20516;-66
2022/12/08 04:23:37;;;;;;;1.90;1.87;;;0.80;98.00;;;;;;5012470;28;20946;-66
2022/12/08 04:26:04;;;;;;;8.70;3.20;;;0.90;98.00;;;;;;5012443;28;21015;-66
2022/12/08 04:28:33;;;;;;;4.93;3.23;;;0.80;98.00;;;;;;5012100;28;20490;-66
2022/12/08 04:31:00;;;;;;;4.13;2.67;;;0.70;98.00;;;;;;5012304;28;20471;-66
2022/12/08 04:33:27;;;;;;;4.00;2.40;;;0.80;98.00;;;;;;5012095;28;20517;-66
2022/12/08 04:35:57;;;;;;;7.20;3.50;;;0.90;98.00;;;;;;5012355;28;20946;-66
2022/12/08 04:38:24;;;;;;;3.20;2.70;;;1.00;98.00;;;;;;5012223;28;20516;-66
2022/12/08 04:40:51;;;;;;;2.57;2.37;;;1.00;98.00;;;;;;5012211;28;20463;-66
2022/12/08 04:43:19;;;;;;;4.30;2.30;;;1.10;98.00;;;;;;5012171;28;20865;-66
2022/12/08 04:45:47;;;;;;;2.50;2.00;;;1.00;98.00;;;;;;5012157;28;20455;-66
2022/12/08 04:48:15;;;;;;;7.80;2.50;;;1.10;98.00;;;;;;5012048;28;20569;-66
2022/12/08 04:50:43;;;;;;;5.20;3.10;;;1.20;98.00;;;;;;5011952;28;20466;-66
2022/12/08 04:53:14;;;;;;;4.63;2.13;;;1.20;98.00;;;;;;5012110;28;20469;-66
2022/12/08 04:55:43;;;;;;;3.10;2.70;;;1.20;98.00;;;;;;5012163;28;20463;-66
2022/12/08 04:58:13;;;;;;;3.20;2.27;;;1.20;98.00;;;;;;5012282;28;20486;-66
2022/12/08 05:00:40;;;;;;;1.87;1.77;;;1.00;98.00;;;;;;5012032;28;20490;-65
2022/12/08 05:03:09;;;;;;;3.83;1.97;;;0.90;98.00;;;;;;4994571;28;20969;-65
2022/12/08 05:05:36;;;;;;;4.57;2.30;;;0.80;98.00;;;;;;5011785;28;20798;-65
2022/12/08 05:08:03;;;;;;;4.20;3.57;;;0.60;98.00;;;;;;5011813;28;21030;-66
2022/12/08 05:10:34;;;;;;;9.73;3.17;;;0.70;98.00;;;;;;5011620;28;20505;-66
2022/12/08 05:13:01;;;;;;;2.50;2.30;;;0.60;98.00;;;;;;5011708;28;20461;-66
2022/12/08 05:15:28;;;;;;;3.40;1.60;;;0.50;98.00;;;;;;5011553;28;20485;-66
2022/12/08 05:17:56;;;;;;;2.90;1.70;;;0.40;98.00;;;;;;5011544;28;20489;-66
2022/12/08 05:20:24;;;;;;;6.77;2.30;;;0.30;98.00;;;;;;5011572;28;20462;-66
2022/12/08 05:22:51;;;;;;;2.00;1.87;;;0.40;98.00;;;;;;5011587;28;20467;-66
2022/12/08 05:25:18;;;;;;;2.00;1.80;;;0.40;98.00;;;;;;5011517;28;20854;-66
2022/12/08 05:27:45;;;;;;;1.37;1.20;;;0.50;98.00;;;;;;5011534;28;20498;-65
2022/12/08 05:30:13;;;;;;;3.90;2.13;;;0.60;98.00;;;;;;4993838;28;20481;-66
2022/12/08 05:32:47;;;;;;;2.17;2.00;;;0.70;98.00;;;;;;5011516;28;20471;-66
2022/12/08 05:35:14;;;;;;;4.83;3.10;;;0.60;98.00;;;;;;5011482;28;20497;-66
2022/12/08 05:37:43;;;;;;;2.10;1.97;;;0.60;98.00;;;;;;5011585;28;20455;-66
2022/12/08 05:40:10;;;;;;;2.37;2.17;;;0.60;98.00;;;;;;5010762;28;20456;-66
2022/12/08 05:42:37;;;;;;;3.70;2.50;;;0.60;98.00;;;;;;4994004;28;20466;-65
2022/12/08 05:45:05;;;;;;;1.80;1.50;;;0.40;98.00;;;;;;5011302;28;20466;-65
2022/12/08 05:47:32;;;;;;;2.10;1.57;;;0.30;98.00;;;;;;4993923;28;20485;-65
2022/12/08 05:50:01;;;;;;;3.93;1.87;;;0.20;98.00;;;;;;5011515;28;20463;-66
2022/12/08 05:52:28;;;;;;;1.60;1.60;;;0.30;98.00;;;;;;5011259;28;20475;-65
2022/12/08 05:54:58;;;;;;;2.27;2.07;;;0.20;98.00;;;;;;5011254;28;20459;-66
2022/12/08 05:57:25;;;;;;;1.60;1.60;;;0.20;98.00;;;;;;5011227;28;20470;-65
2022/12/08 05:59:52;;;;;;;1.97;1.87;;;0.10;98.00;;;;;;5011266;28;20497;-66
2022/12/08 06:02:19;;;;;;;2.23;2.03;;;0.00;98.00;;;;;;5011197;28;20461;-66
2022/12/08 06:04:46;;;;;;;2.87;2.37;;;0.00;98.00;;;;;;5011192;28;21057;-66
2022/12/08 06:07:14;;;;;;;3.30;2.10;;;0.20;98.00;;;;;;5011338;28;20508;-66
2022/12/08 06:09:41;;;;;;;1.63;1.53;;;0.30;98.00;;;;;;5011083;28;20463;-66
2022/12/08 06:14:50;;;;;;;1.67;1.60;;;0.30;98.00;;;;;;5012167;28;20482;-66
2022/12/08 06:17:17;;;;;;;3.50;1.93;;;0.10;98.00;;;;;;5011470;28;20865;-66
2022/12/08 06:19:45;;;;;;;2.60;2.30;;;0.10;98.00;;;;;;5012135;28;20465;-66
2022/12/08 06:22:12;;;;;;;2.30;1.83;;;0.00;98.00;;;;;;5010995;28;20549;-66
2022/12/08 06:24:39;;;;;;;1.97;1.87;;;0.00;98.00;;;;;;5011230;28;20467;-66
2022/12/08 06:27:06;;;;;;;5.67;1.87;;;0.00;98.00;;;;;;5011116;28;20458;-66
2022/12/08 06:29:35;;;;;;;1.83;1.50;;;0.00;98.00;;;;;;5010732;28;20498;-66
2022/12/08 06:32:02;;;;;;;3.77;2.90;;;-0.10;98.00;;;;;;5010939;28;20467;-65
2022/12/08 06:34:32;;;;;;;1.93;1.60;;;-0.20;98.00;;;;;;5011091;28;20470;-66
2022/12/08 06:37:02;;;;;;;3.23;2.20;;;-0.30;98.00;;;;;;5010958;28;20462;-65
2022/12/08 06:39:29;;;;;;;1.20;1.17;;;-0.30;98.00;;;;;;5011081;28;20521;-66
2022/12/08 06:44:42;;;;;;;1.90;1.80;;;0.00;98.00;;;;;;5011207;28;20497;-66
2022/12/08 06:47:09;;;;;;;2.30;2.07;;;0.00;98.00;;;;;;5011011;28;20449;-66
2022/12/08 06:49:36;;;;;;;2.67;2.47;;;0.10;98.00;;;;;;5010787;28;20490;-65
2022/12/08 06:52:03;;;;;;;2.30;1.90;;;0.10;98.00;;;;;;5011883;28;20459;-65
2022/12/08 06:54:31;;;;;;;2.30;1.93;;;0.00;98.00;;;;;;5014379;28;20451;-66
2022/12/08 06:56:58;;;;;;;1.50;1.50;;;0.00;98.00;;;;;;5014261;28;20963;-65
2022/12/08 06:59:25;;;;;;;9.80;2.47;;;-0.20;98.00;;;;;;4996696;28;20479;-66
2022/12/08 07:01:56;;;;;;;3.00;1.77;;;-0.20;98.00;;;;;;5014158;28;20556;-66
2022/12/08 07:04:23;;;;;;;3.20;1.67;;;0.00;98.00;;;;;;5014001;28;20985;-66
2022/12/08 07:06:50;;;;;;;1.80;1.70;;;0.00;98.00;;;;;;5014041;28;20465;-65
2022/12/08 07:09:17;;;;;;;1.80;1.73;;;-0.20;98.00;;;;;;5013848;28;20487;-65
2022/12/08 07:11:44;;;;;;;3.13;2.00;;;-0.40;98.00;;;;;;5013977;28;20473;-65
2022/12/08 07:14:12;;;;;;;5.47;3.23;;;-0.40;98.00;;;;;;5013710;28;20461;-66
2022/12/08 07:16:39;;;;;;;1.80;1.53;;;-0.30;98.00;;;;;;5013965;28;20469;-65
2022/12/08 07:19:07;;;;;;;2.63;2.10;;;-0.30;98.00;;;;;;5013866;28;20871;-65
2022/12/08 07:21:34;;;;;;;9.53;2.47;;;-0.30;98.00;;;;;;5013712;28;20462;-65
2022/12/08 07:24:01;;;;;;;3.67;2.90;;;-0.20;98.00;;;;;;5013604;28;20956;-66
2022/12/08 07:26:29;;;;;;;2.60;2.40;;;-0.20;98.00;;;;;;5013652;28;20462;-65
2022/12/08 07:28:56;;;;;;;2.70;2.53;;;-0.20;98.00;;;;;;5013424;28;20482;-66
2022/12/08 07:31:25;;;;;;;2.20;1.97;;;-0.10;98.00;;;;;;5013389;28;20524;-65
2022/12/08 07:33:52;;;;;;;4.30;2.23;;;-0.10;98.00;;;;;;5013493;28;20461;-65
2022/12/08 07:36:23;;;;;;;2.73;2.07;;;-0.10;98.00;;;;;;5013510;28;20466;-65
2022/12/08 07:38:52;;;;;;;1.70;1.50;;;-0.20;98.00;;;;;;5013529;28;20471;-65
2022/12/08 07:41:20;;;;;;;2.47;2.10;;;-0.10;98.00;;;;;;5013374;28;20508;-65
2022/12/08 07:43:48;;;;;;;1.90;1.80;;;-0.20;98.00;;;;;;5013484;28;20463;-61
2022/12/08 07:46:16;;;;;;;1.80;1.70;;;-0.20;98.00;;;;;;5013272;28;20979;-61
2022/12/08 07:48:46;;;;;;;2.70;2.13;;;0.00;98.00;;;;;;5013255;28;20478;-61
2022/12/08 07:51:15;;;;;;;3.17;2.30;;;0.00;98.00;;;;;;4995912;28;20958;-61
2022/12/08 07:53:46;;;;;;;6.33;3.60;;;0.00;98.00;;;;;;5013090;28;20886;-61
2022/12/08 07:56:13;;;;;;;4.90;2.53;;;0.20;98.00;;;;;;5012546;28;20520;-61
2022/12/08 07:58:45;;;;;;;2.43;1.93;;;0.20;98.00;;;;;;5013024;28;20829;-62
2022/12/08 08:01:21;;;;;;;2.20;2.00;;;0.10;98.00;;;;;;5012883;28;20460;-61
2022/12/08 08:03:48;;;;;;;2.60;2.47;;;0.20;98.00;;;;;;5012304;28;20469;-61
2022/12/08 08:06:15;;;;;;;3.30;1.97;;;0.20;98.00;;;;;;5012690;28;20465;-61
2022/12/08 08:08:44;;;;;;;4.93;3.40;;;0.20;98.00;;;;;;5012857;28;20904;-61
2022/12/08 08:11:11;;;;;;;4.70;2.53;;;0.20;98.00;;;;;;5012455;28;20473;-62
2022/12/08 08:13:38;;;;;;;3.43;2.23;;;0.30;98.00;;;;;;5012681;28;20469;-61
2022/12/08 08:16:06;;;;;;;5.07;3.00;;;0.40;98.00;;;;;;5012775;28;20461;-62
2022/12/08 08:18:34;;;;;;;5.93;2.60;;;0.50;98.00;;;;;;4995055;28;20461;-62
2022/12/08 08:21:05;;;;;;;8.50;5.93;;;0.40;98.00;;;;;;5012526;28;20844;-62
2022/12/08 08:23:32;;;;;;;9.67;4.93;;;0.30;98.00;;;;;;5012504;28;20511;-61
2022/12/08 08:26:04;;;;;;;5.40;3.27;;;0.20;98.00;;;;;;5012565;28;20477;-62
2022/12/08 08:28:31;;;;;;;2.63;2.43;;;0.30;98.00;;;;;;5012515;28;21131;-62
2022/12/08 08:30:59;;;;;;;6.63;3.37;;;0.40;98.00;;;;;;5012458;28;20475;-62
2022/12/08 08:33:27;;;;;;;13.53;3.73;;;0.50;98.00;;;;;;5012646;28;20459;-62
2022/12/08 08:35:54;;;;;;;8.17;2.63;;;0.30;98.00;;;;;;4995070;28;20493;-62
2022/12/08 08:38:23;;;;;;;3.83;2.37;;;0.20;98.00;;;;;;5012358;28;20457;-62
2022/12/08 08:40:50;;;;;;;4.67;3.07;;;0.30;98.00;;;;;;5012165;28;20563;-62
2022/12/08 08:43:31;;;;;;;3.90;2.73;;;0.20;98.00;;;;;;5012216;28;20510;-62
2022/12/08 08:45:59;;;;;;;4.00;3.43;;;0.30;98.00;;;;;;5012145;28;20461;-62
2022/12/08 08:48:27;;;;;;;5.80;2.43;;;0.40;98.00;;;;;;5011847;28;20502;-62
2022/12/08 08:50:55;;;;;;;1.77;1.73;;;0.60;98.00;;;;;;5012123;28;20463;-62
2022/12/08 08:53:22;;;;;;;3.10;2.50;;;0.70;98.00;;;;;;5011827;28;20458;-62
2022/12/08 08:55:50;;;;;;;3.37;2.80;;;0.90;98.00;;;;;;5012036;28;20465;-62
2022/12/08 08:58:18;;;;;;;4.77;2.93;;;0.90;98.00;;;;;;5011745;28;20463;-62
2022/12/08 09:00:48;;;;;;;3.00;2.40;;;0.90;98.00;;;;;;5011602;28;20461;-62
2022/12/08 09:03:15;;;;;;;6.80;3.13;;;0.80;98.00;;;;;;5011680;28;20960;-62
2022/12/08 09:05:42;;;;;;;3.03;2.00;;;0.80;98.00;;;;;;5011840;28;20473;-62
2022/12/08 09:08:09;;;;;;;5.27;3.27;;;0.60;98.00;;;;;;5011801;28;20470;-62
2022/12/08 09:10:36;;;;;;;2.80;2.10;;;0.70;98.00;;;;;;5007254;28;20462;-62
2022/12/08 09:13:04;;;;;;;2.20;2.00;;;0.70;98.00;;;;;;5009283;28;20466;-62
2022/12/08 09:15:32;;;;;;;4.90;4.00;;;0.60;98.00;;;;;;4990549;28;20463;-62
2022/12/08 09:18:00;;;;;;;2.83;2.63;;;0.60;98.00;;;;;;5009003;28;20516;-62
2022/12/08 09:20:27;;;;;;;2.90;2.60;;;0.60;98.00;;;;;;5008550;28;20467;-64
2022/12/08 09:22:54;;;;;;;1.93;1.60;;;0.70;98.00;;;;;;5008930;28;20463;-63
2022/12/08 09:25:21;;;;;;;1.87;1.80;;;3.10;98.00;;;;;;5008734;28;20471;-64
2022/12/08 09:27:48;;;;;;;11.70;4.73;;;4.60;98.00;;;;;;5008930;28;20465;-61
2022/12/08 09:30:16;;;;;;;5.57;2.37;;;4.30;98.00;;;;;;5008388;28;20913;-61
2022/12/08 09:32:44;;;;;;;5.70;3.80;;;3.80;98.00;;;;;;5008836;28;20457;-61
2022/12/08 09:35:14;;;;;;;5.10;3.10;;;3.40;98.00;;;;;;5008385;28;20469;-61
2022/12/08 09:37:41;;;;;;;4.37;2.40;;;2.90;98.00;;;;;;5008644;28;20526;-61
2022/12/08 09:40:12;;;;;;;4.63;2.80;;;2.70;98.00;;;;;;5008526;28;20522;-61
2022/12/08 09:42:51;;;;;;;2.57;2.40;;;2.50;98.00;;;;;;5008556;28;20470;-61
2022/12/08 09:45:20;;;;;;;2.50;2.03;;;2.30;98.00;;;;;;5008052;28;20460;-61
2022/12/08 09:47:58;;;;;;;6.20;3.20;;;2.30;98.00;;;;;;5008161;28;20456;-61
2022/12/08 09:50:32;;;;;;;3.50;3.00;;;2.00;98.00;;;;;;5005610;28;20492;-61
2022/12/08 09:53:03;;;;;;;2.00;1.90;;;2.10;98.00;;;;;;5007864;28;20482;-61
2022/12/08 09:55:40;;;;;;;4.50;2.50;;;2.00;98.00;;;;;;5008288;28;21001;-62
2022/12/08 09:58:19;;;;;;;3.93;2.57;;;2.00;98.00;;;;;;5008574;28;20493;-61
2022/12/08 10:00:47;;;;;;;3.30;2.13;;;2.00;98.00;;;;;;5008824;28;20474;-61
2022/12/08 10:03:17;;;;;;;4.37;3.13;;;2.00;98.00;;;;;;4991641;28;20471;-62
2022/12/08 10:05:54;;;;;;;7.40;3.30;;;2.00;98.00;;;;;;5008940;28;20448;-62
2022/12/08 10:08:30;;;;;;;4.37;2.83;;;1.90;98.00;;;;;;5009272;28;20949;-62
2022/12/08 10:10:59;;;;;;;5.27;2.90;;;1.70;98.00;;;;;;5009240;28;20462;-62
2022/12/08 10:13:35;;;;;;;8.33;3.20;;;1.60;98.00;;;;;;5008659;28;20466;-62
2022/12/08 10:16:15;;;;;;;4.40;3.00;;;1.40;98.00;;;;;;4989951;28;20466;-62
2022/12/08 10:18:43;;;;;;;2.50;2.13;;;1.50;98.00;;;;;;5009339;28;20944;-62
2022/12/08 10:21:17;;;;;;;5.17;2.37;;;1.70;98.00;;;;;;5008607;28;20533;-62
2022/12/08 10:23:46;;;;;;;1.83;1.80;;;1.60;98.00;;;;;;5008781;28;20459;-62
2022/12/08 10:26:15;;;;;;;3.83;2.87;;;1.60;98.00;;;;;;5009904;28;20455;-62
2022/12/08 10:28:43;;;;;;;3.77;2.87;;;1.80;98.00;;;;;;5012473;28;20978;-60
2022/12/08 10:31:16;;;;;;;7.00;3.13;;;1.90;98.00;;;;;;5012108;28;20490;-62
2022/12/08 10:33:57;;;;;;;2.60;2.37;;;1.90;98.00;;;;;;5011804;28;20493;-61
2022/12/08 10:36:42;;;;;;;4.40;2.53;;;2.00;98.00;;;;;;5011982;28;20467;-62
2022/12/08 10:39:31;;;;;;;4.50;3.17;;;2.00;98.00;;;;;;5012574;28;20455;-62
2022/12/08 10:42:09;;;;;;;5.03;3.20;;;2.10;98.00;;;;;;4994743;28;20459;-61
2022/12/08 10:44:50;;;;;;;4.57;2.80;;;2.40;98.00;;;;;;5012187;28;20471;-61
2022/12/08 10:47:21;;;;;;;3.47;2.63;;;2.70;98.00;;;;;;5012167;28;20503;-61
2022/12/08 10:50:20;;;;;;;3.93;2.80;;;2.70;98.00;;;;;;5009855;28;20834;-61
2022/12/08 10:52:55;;;;;;;4.67;2.50;;;2.70;98.00;;;;;;5006210;28;20468;-62
2022/12/08 10:55:23;;;;;;;2.50;2.30;;;2.70;98.00;;;;;;5012014;28;20478;-61
2022/12/08 10:57:53;;;;;;;3.50;2.57;;;2.90;98.00;;;;;;5011891;28;21171;-61
2022/12/08 11:00:23;;;;;;;3.27;2.43;;;3.10;98.00;;;;;;5011228;28;20470;-61
2022/12/08 11:02:57;;;;;;;4.30;2.47;;;3.30;98.00;;;;;;5011523;28;20451;-61
2022/12/08 11:05:30;;;;;;;2.83;1.90;;;3.50;98.00;;;;;;5011119;28;20466;-61
2022/12/08 11:07:58;;;;;;;4.10;2.30;;;3.70;98.00;;;;;;5011910;28;20467;-62
2022/12/08 11:10:34;;;;;;;2.70;2.17;;;3.80;98.00;;;;;;5011521;28;20514;-62
2022/12/08 11:13:04;;;;;;;2.73;1.87;;;4.00;98.00;;;;;;5012205;28;20466;-61
2022/12/08 11:15:36;;;;;;;2.80;1.97;;;4.20;98.00;;;;;;5011676;28;20556;-61
2022/12/08 11:18:10;;;;;;;3.23;2.20;;;4.30;98.00;;;;;;5011821;28;21001;-62
2022/12/08 11:20:42;;;;;;;3.83;2.60;;;4.50;98.00;;;;;;5011464;28;20460;-62
2022/12/08 11:23:24;;;;;;;6.67;1.80;;;4.70;98.00;;;;;;5011686;28;20452;-62
2022/12/08 11:25:54;;;;;;;3.23;2.30;;;4.90;98.00;;;;;;5011488;28;20452;-62
2022/12/08 11:28:24;;;;;;;2.47;1.70;;;5.10;98.00;;;;;;4994569;28;20460;-62
2022/12/08 11:30:57;;;;;;;3.30;1.97;;;5.20;98.00;;;;;;5011176;28;20492;-63
2022/12/08 11:33:26;;;;;;;4.27;2.13;;;5.30;98.00;;;;;;5011373;28;20514;-62
2022/12/08 11:36:02;;;;;;;7.70;2.63;;;5.20;98.00;;;;;;5011131;28;20548;-62
2022/12/08 11:38:31;;;;;;;5.70;2.60;;;5.10;98.00;;;;;;4993471;28;20817;-62
2022/12/08 11:41:08;;;;;;;5.20;2.10;;;5.00;98.00;;;;;;5011000;28;20989;-62
2022/12/08 11:43:43;;;;;;;2.27;1.50;;;4.90;98.00;;;;;;5011227;28;20468;-62
2022/12/08 11:46:18;;;;;;;4.60;2.13;;;5.10;98.00;;;;;;5011092;28;20471;-61
2022/12/08 11:48:50;;;;;;;2.73;1.70;;;5.30;98.00;;;;;;5011331;28;20876;-62
2022/12/08 11:51:25;;;;;;;2.47;1.67;;;5.50;98.00;;;;;;5008769;28;20548;-62
2022/12/08 11:54:09;;;;;;;4.80;1.97;;;5.60;98.00;;;;;;5009173;28;20466;-61
2022/12/08 11:56:39;;;;;;;2.97;2.20;;;5.70;98.00;;;;;;5011171;28;20545;-63
2022/12/08 11:59:14;;;;;;;3.20;2.33;;;5.70;98.00;;;;;;5010671;28;20470;-62
2022/12/08 12:01:41;;;;;;;2.70;2.33;;;5.60;98.00;;;;;;5011008;28;20465;-62
2022/12/08 12:04:17;;;;;;;5.17;2.43;;;5.60;98.00;;;;;;4993721;28;20466;-63
2022/12/08 12:07:22;;;;;;;3.70;2.20;;;5.40;98.00;;;;;;5010961;28;20960;-62
2022/12/08 12:10:07;;;;;;;1.90;1.50;;;5.50;98.00;;;;;;5003450;28;20572;-61
2022/12/08 12:12:51;;;;;;;2.27;2.00;;;5.60;98.00;;;;;;5010741;28;20462;-61
2022/12/08 12:15:45;;;;;;;1.83;1.73;;;5.60;98.00;;;;;;5010720;28;20469;-62
2022/12/08 12:18:22;;;;;;;2.97;1.73;;;5.70;98.00;;;;;;4995907;28;21010;-62
2022/12/08 12:20:56;;;;;;;1.80;1.60;;;5.70;98.00;;;;;;5010323;28;20805;-62
2022/12/08 12:23:31;;;;;;;3.97;1.83;;;5.90;98.00;;;;;;4993389;28;20941;-62
2022/12/08 12:26:01;;;;;;;8.83;2.37;;;5.80;98.00;;;;;;5010116;28;20874;-62
2022/12/08 12:28:33;;;;;;;3.40;2.10;;;5.70;98.00;;;;;;5010503;28;21014;-62
2022/12/08 12:31:05;;;;;;;3.30;2.00;;;5.60;98.00;;;;;;5010046;28;20491;-62
2022/12/08 12:33:33;;;;;;;2.00;1.80;;;5.60;98.00;;;;;;5010562;28;20467;-61
2022/12/08 12:36:04;;;;;;;2.13;1.40;;;5.60;98.00;;;;;;5010188;28;20466;-62
2022/12/08 12:41:25;;;;;;;3.27;2.40;;;5.50;98.00;;;;;;5012926;28;20454;-62
2022/12/08 12:44:23;;;;;;;2.17;1.90;;;5.40;98.00;;;;;;4995893;28;20466;-61
2022/12/08 12:46:56;;;;;;;1.93;1.60;;;5.40;98.00;;;;;;5012523;28;20978;-62
2022/12/08 12:49:52;;;;;;;1.60;1.60;;;5.40;98.00;;;;;;5011740;28;20959;-62
2022/12/08 12:52:45;;;;;;;2.50;2.00;;;5.50;98.00;;;;;;5012495;28;20466;-62
2022/12/08 12:55:51;;;;;;;4.13;2.30;;;5.60;98.00;;;;;;4996252;28;20550;-62
2022/12/08 12:58:41;;;;;;;3.13;1.87;;;5.50;98.00;;;;;;5011764;28;20534;-62
2022/12/08 13:01:45;;;;;;;2.13;1.50;;;5.80;98.00;;;;;;5012628;28;20926;-62
2022/12/08 13:04:12;;;;;;;3.70;2.13;;;6.30;98.00;;;;;;5005963;28;20493;-62
2022/12/08 13:06:43;;;;;;;4.73;2.47;;;6.20;98.00;;;;;;5012680;28;20463;-62
2022/12/08 13:09:22;;;;;;;2.40;1.60;;;6.00;98.00;;;;;;5012522;28;20474;-62
2022/12/08 13:11:52;;;;;;;5.80;2.57;;;5.90;98.00;;;;;;5012533;28;20475;-62
2022/12/08 13:14:29;;;;;;;5.53;2.80;;;5.60;98.00;;;;;;5012478;28;20494;-62
2022/12/08 13:16:58;;;;;;;2.90;1.97;;;5.30;98.00;;;;;;5012422;28;20549;-62
2022/12/08 13:23:01;;;;;;;4.57;2.90;;;5.20;98.00;;;;;;4996866;28;20486;-62
2022/12/08 13:26:10;;;;;;;13.57;6.60;;;5.10;98.00;;;;;;5012191;28;20459;-62
2022/12/08 13:29:19;;;;;;;6.60;3.00;;;5.20;98.00;;;;;;5012416;28;20472;-62
2022/12/08 13:31:49;;;;;;;5.10;3.00;;;5.40;98.00;;;;;;4976457;28;20499;-62
2022/12/08 13:34:21;;;;;;;6.50;2.80;;;5.70;98.00;;;;;;4994854;28;20468;-62